Time;durP1;ratioP1;P1;durP2;ratioP2;P2;SDS_P1;SDS_P2;PMS_P1;PMS_P2;Temp;Humidity;BMP_temperature;BMP_pressure;BME280_temperature;BME280_humidity;BME280_pressure;Samples;Min_cycle;Max_cycle;Signal;HPM_P1;HPM_P2
2023/12/21 00:01:33;;;;;;;45.20;30.70;;;;;;;12.22;100.00;99495.15;108882;1274;21987;-62
2023/12/21 00:03:59;;;;;;;57.30;33.40;;;;;;;12.21;100.00;99496.90;108887;1271;21955;-60
2023/12/21 00:06:25;;;;;;;49.60;31.00;;;;;;;12.21;100.00;99500.27;108105;1277;1003133;-62
2023/12/21 00:08:50;;;;;;;41.00;27.00;;;;;;;12.20;100.00;99505.39;108825;1267;22636;-62
2023/12/21 00:11:16;;;;;;;41.10;27.00;;;;;;;12.20;100.00;99504.34;108823;1271;21977;-61
2023/12/21 00:13:41;;;;;;;44.40;29.20;;;;;;;12.19;100.00;99508.77;108813;1267;21982;-62
2023/12/21 00:16:07;;;;;;;45.60;30.00;;;;;;;12.18;100.00;99514.92;108819;1271;21974;-62
2023/12/21 00:18:32;;;;;;;46.20;30.40;;;;;;;12.18;100.00;99513.35;108861;1277;21974;-62
2023/12/21 00:20:58;;;;;;;44.90;28.90;;;;;;;12.15;100.00;99514.53;108784;1277;21984;-62
2023/12/21 00:23:23;;;;;;;44.00;28.20;;;;;;;12.14;100.00;99511.38;108822;1277;22009;-61
2023/12/21 00:25:49;;;;;;;48.60;30.40;;;;;;;12.16;100.00;99509.40;108837;1277;23593;-62
2023/12/21 00:28:15;;;;;;;44.80;29.60;;;;;;;12.16;100.00;99508.52;108845;1273;21977;-62
2023/12/21 00:30:40;;;;;;;52.50;31.90;;;;;;;12.14;100.00;99505.24;108827;1273;21977;-62
2023/12/21 00:33:06;;;;;;;55.80;32.60;;;;;;;12.14;100.00;99508.07;108797;1277;23043;-60
2023/12/21 00:35:31;;;;;;;49.80;30.60;;;;;;;12.13;100.00;99515.32;108846;1277;21976;-60
2023/12/21 00:37:57;;;;;;;45.30;30.30;;;;;;;12.11;100.00;99514.84;108829;1273;21976;-60
2023/12/21 00:40:22;;;;;;;51.10;32.10;;;;;;;12.05;100.00;99513.77;108821;1267;21985;-62
2023/12/21 00:42:48;;;;;;;43.90;27.90;;;;;;;12.00;100.00;99506.91;108819;1277;21977;-62
2023/12/21 00:45:14;;;;;;;45.10;29.40;;;;;;;11.97;100.00;99505.92;108768;1277;21967;-61
2023/12/21 00:47:39;;;;;;;41.60;26.80;;;;;;;11.96;100.00;99511.05;108784;1271;22439;-61
2023/12/21 00:50:06;;;;;;;43.70;28.40;;;;;;;11.97;100.00;99510.84;108835;1272;21977;-61
2023/12/21 00:52:32;;;;;;;42.10;27.30;;;;;;;11.96;100.00;99512.65;108858;1277;21970;-61
2023/12/21 00:54:57;;;;;;;43.40;28.10;;;;;;;11.95;100.00;99521.64;108817;1277;22019;-63
2023/12/21 00:57:23;;;;;;;42.40;27.70;;;;;;;11.94;100.00;99524.13;108796;1277;22012;-63
2023/12/21 00:59:49;;;;;;;46.50;30.60;;;;;;;11.87;100.00;99523.82;108838;1277;21977;-61
2023/12/21 01:02:34;;;;;;;42.00;27.30;;;;;;;11.87;100.00;99523.13;108851;1267;23047;-61
2023/12/21 01:05:00;;;;;;;46.40;27.80;;;;;;;11.86;100.00;99531.59;108857;1277;22442;-61
2023/12/21 01:07:26;;;;;;;40.30;25.00;;;;;;;11.85;100.00;99528.98;108835;1270;21999;-63
2023/12/21 01:09:51;;;;;;;36.90;25.40;;;;;;;11.81;100.00;99526.64;108804;1270;22444;-62
2023/12/21 01:12:17;;;;;;;37.60;25.50;;;;;;;11.81;100.00;99528.58;108830;1276;21991;-62
2023/12/21 01:14:42;;;;;;;34.80;23.20;;;;;;;11.83;100.00;99526.75;108810;1267;21998;-62
2023/12/21 01:17:08;;;;;;;37.40;22.90;;;;;;;11.86;100.00;99522.29;108836;1277;22024;-60
2023/12/21 01:19:33;;;;;;;36.00;23.50;;;;;;;11.87;100.00;99514.14;108856;1277;21981;-62
2023/12/21 01:21:59;;;;;;;39.50;24.90;;;;;;;11.87;100.00;99508.18;108801;1277;21973;-62
2023/12/21 01:24:25;;;;;;;40.00;25.00;;;;;;;11.85;100.00;99504.89;108832;1277;21972;-62
2023/12/21 01:26:50;;;;;;;38.00;24.30;;;;;;;11.81;100.00;99499.91;108737;1277;21997;-62
2023/12/21 01:29:16;;;;;;;43.00;26.20;;;;;;;11.76;100.00;99492.88;108572;1277;21986;-62
2023/12/21 01:31:41;;;;;;;38.30;24.50;;;;;;;11.66;100.00;99490.20;108489;1277;22011;-62
2023/12/21 01:34:07;;;;;;;41.30;25.20;;;;;;;11.62;100.00;99487.52;108554;1270;21976;-62
2023/12/21 01:36:32;;;;;;;35.40;24.20;;;;;;;11.57;100.00;99495.02;108469;1267;21973;-62
2023/12/21 01:38:58;;;;;;;38.50;25.70;;;;;;;11.56;100.00;99494.54;108551;1277;22281;-64
2023/12/21 01:41:24;;;;;;;35.00;22.20;;;;;;;11.56;100.00;99489.98;108613;1276;21983;-60
2023/12/21 01:43:50;;;;;;;40.10;24.80;;;;;;;11.48;100.00;99492.33;108478;1278;21949;-61
2023/12/21 01:46:15;;;;;;;35.20;23.60;;;;;;;11.48;100.00;99490.23;108605;1277;21980;-62
2023/12/21 01:48:42;;;;;;;38.40;23.40;;;;;;;11.49;100.00;99492.48;107942;1274;1002827;-62
2023/12/21 01:51:09;;;;;;;35.60;23.60;;;;;;;11.50;100.00;99494.73;108479;1277;21977;-62
2023/12/21 01:53:34;;;;;;;33.80;21.90;;;;;;;11.48;100.00;99486.17;108517;1279;21980;-60
2023/12/21 01:56:00;;;;;;;36.20;23.60;;;;;;;11.44;100.00;99485.23;108364;1278;21990;-60
2023/12/21 01:58:25;;;;;;;38.70;24.60;;;;;;;11.43;100.00;99484.73;108637;1277;22000;-60
2023/12/21 02:00:52;;;;;;;39.20;23.80;;;;;;;11.44;100.00;99477.69;108513;1267;21982;-59
2023/12/21 02:03:19;;;;;;;36.00;22.60;;;;;;;11.46;100.00;99479.23;108615;1277;22212;-61
2023/12/21 02:05:45;;;;;;;34.80;23.80;;;;;;;11.47;100.00;99483.58;110264;1276;21980;-59
2023/12/21 02:08:11;;;;;;;36.10;24.00;;;;;;;11.43;100.00;99476.33;108702;1267;21991;-59
2023/12/21 02:10:39;;;;;;;37.00;23.20;;;;;;;11.34;100.00;99463.40;108605;1277;21992;-61
2023/12/21 02:13:05;;;;;;;34.00;22.40;;;;;;;11.26;100.00;99464.00;108617;1270;21988;-61
2023/12/21 02:15:31;;;;;;;35.80;22.60;;;;;;;11.16;100.00;99471.31;108654;1276;21980;-61
2023/12/21 02:17:56;;;;;;;34.50;21.60;;;;;;;11.10;100.00;99465.52;108654;1274;21965;-61
2023/12/21 02:20:22;;;;;;;32.30;21.30;;;;;;;11.09;100.00;99474.69;108463;1277;21987;-61
2023/12/21 02:22:48;;;;;;;38.20;24.40;;;;;;;11.06;100.00;99478.61;108645;1271;21977;-59
2023/12/21 02:25:14;;;;;;;38.80;24.00;;;;;;;11.04;100.00;99475.50;108661;1277;22017;-61
2023/12/21 02:27:39;;;;;;;34.70;23.60;;;;;;;11.01;100.00;99467.89;108802;1277;22162;-60
2023/12/21 02:30:06;;;;;;;32.40;22.30;;;;;;;10.95;100.00;99462.61;108629;1270;21977;-63
2023/12/21 02:32:32;;;;;;;36.10;22.90;;;;;;;10.90;100.00;99460.98;108660;1277;21982;-60
2023/12/21 02:34:57;;;;;;;36.20;23.20;;;;;;;10.82;100.00;99472.08;108600;1277;22016;-62
2023/12/21 02:37:23;;;;;;;35.40;22.60;;;;;;;10.80;100.00;99473.91;108666;1277;22108;-60
2023/12/21 02:39:49;;;;;;;37.50;23.70;;;;;;;10.76;100.00;99483.48;108894;1277;21983;-62
2023/12/21 02:42:14;;;;;;;34.40;23.00;;;;;;;10.72;100.00;99481.13;108782;1277;21986;-61
2023/12/21 02:44:40;;;;;;;33.40;22.70;;;;;;;10.71;100.00;99476.09;108801;1271;21965;-60
2023/12/21 02:47:05;;;;;;;38.20;22.50;;;;;;;10.71;100.00;99473.62;108821;1277;21989;-62
2023/12/21 02:49:31;;;;;;;39.90;23.70;;;;;;;10.70;100.00;99475.23;108796;1277;22442;-60
2023/12/21 02:51:56;;;;;;;35.60;23.70;;;;;;;10.69;100.00;99478.77;108842;1277;22002;-61
2023/12/21 02:54:22;;;;;;;39.60;24.40;;;;;;;10.66;100.00;99476.57;108651;1277;21988;-61
2023/12/21 02:56:47;;;;;;;36.90;23.40;;;;;;;10.66;100.00;99480.95;108593;1274;22077;-60
2023/12/21 02:59:13;;;;;;;38.80;23.40;;;;;;;10.66;100.00;99482.16;108654;1274;21981;-61
2023/12/21 03:01:42;;;;;;;38.50;23.00;;;;;;;10.68;100.00;99482.47;108624;1277;21977;-61
2023/12/21 03:04:11;;;;;;;36.40;22.70;;;;;;;10.70;100.00;99478.55;108707;1277;22446;-61
2023/12/21 03:06:37;;;;;;;39.00;24.90;;;;;;;10.73;100.00;99476.40;108630;1277;21974;-60
2023/12/21 03:09:02;;;;;;;40.60;25.90;;;;;;;10.73;100.00;99469.17;108631;1277;21983;-61
2023/12/21 03:11:28;;;;;;;44.70;26.30;;;;;;;10.73;100.00;99473.05;108607;1277;21977;-62
2023/12/21 03:13:54;;;;;;;43.00;25.60;;;;;;;10.70;100.00;99472.41;108633;1267;21980;-62
2023/12/21 03:16:19;;;;;;;46.00;27.80;;;;;;;10.63;100.00;99468.74;108620;1277;21977;-61
2023/12/21 03:18:46;;;;;;;43.30;28.60;;;;;;;10.59;100.00;99464.66;108755;1277;21980;-61
2023/12/21 03:21:12;;;;;;;49.20;29.50;;;;;;;10.58;100.00;99469.43;108829;1277;21973;-60
2023/12/21 03:23:40;;;;;;;52.10;29.80;;;;;;;10.56;100.00;99475.43;108838;1277;21982;-60
2023/12/21 03:26:07;;;;;;;45.90;27.90;;;;;;;10.54;100.00;99477.40;108857;1277;21973;-61
2023/12/21 03:28:33;;;;;;;89.00;39.40;;;;;;;10.53;100.00;99483.05;108826;1277;23149;-62
2023/12/21 03:31:00;;;;;;;89.20;39.20;;;;;;;10.51;100.00;99490.31;108674;1277;293368;-60
2023/12/21 03:33:25;;;;;;;87.70;40.20;;;;;;;10.47;100.00;99486.19;108806;1277;21980;-60
2023/12/21 03:35:51;;;;;;;77.50;42.10;;;;;;;10.44;100.00;99480.13;108890;1271;21986;-61
2023/12/21 03:38:16;;;;;;;58.30;34.50;;;;;;;10.43;100.00;99481.02;108799;1277;21977;-60
2023/12/21 03:40:42;;;;;;;46.70;28.90;;;;;;;10.40;100.00;99486.73;108788;1277;22445;-60
2023/12/21 03:43:08;;;;;;;44.70;26.70;;;;;;;10.35;100.00;99492.77;108804;1277;21981;-59
2023/12/21 03:45:39;;;;;;;40.10;26.00;;;;;;;10.31;100.00;99505.86;108788;1277;21981;-61
2023/12/21 03:48:09;;;;;;;42.70;27.20;;;;;;;10.26;100.00;99505.63;108768;1277;21991;-59
2023/12/21 03:50:34;;;;;;;42.90;27.20;;;;;;;10.27;100.00;99506.48;108682;1277;22191;-59
2023/12/21 03:53:00;;;;;;;44.10;25.60;;;;;;;10.25;100.00;99508.27;108621;1268;21986;-60
2023/12/21 03:55:25;;;;;;;36.60;24.90;;;;;;;10.23;100.00;99514.11;108591;1274;21985;-61
2023/12/21 03:57:51;;;;;;;42.50;25.40;;;;;;;10.19;100.00;99524.02;108629;1277;21989;-61
2023/12/21 04:00:18;;;;;;;39.90;24.80;;;;;;;10.15;100.00;99528.70;108592;1267;21980;-61
2023/12/21 04:02:47;;;;;;;35.50;22.70;;;;;;;10.11;100.00;99527.22;108697;1277;21990;-61
2023/12/21 04:05:13;;;;;;;34.50;21.30;;;;;;;10.08;100.00;99525.35;108603;1277;21977;-61
2023/12/21 04:07:38;;;;;;;37.70;22.00;;;;;;;10.05;100.00;99524.02;108611;1274;21967;-61
2023/12/21 04:10:04;;;;;;;31.30;21.00;;;;;;;10.01;100.00;99517.98;108644;1277;21990;-60
2023/12/21 04:12:30;;;;;;;30.60;20.90;;;;;;;9.97;100.00;99519.45;108731;1277;21977;-61
2023/12/21 04:14:56;;;;;;;29.60;19.30;;;;;;;9.91;100.00;99518.55;108666;1274;22765;-61
2023/12/21 04:17:21;;;;;;;30.40;20.50;;;;;;;9.83;100.00;99520.66;108634;1274;21983;-61
2023/12/21 04:19:47;;;;;;;31.30;20.80;;;;;;;9.71;100.00;99530.23;108667;1277;21982;-60
2023/12/21 04:22:13;;;;;;;27.90;19.00;;;;;;;9.63;100.00;99530.75;108702;1277;21972;-60
2023/12/21 04:24:38;;;;;;;31.40;20.50;;;;;;;9.57;100.00;99524.58;108610;1274;22261;-60
2023/12/21 04:27:04;;;;;;;32.20;19.70;;;;;;;9.51;100.00;99516.09;108619;1277;21977;-62
2023/12/21 04:29:29;;;;;;;26.60;17.50;;;;;;;9.53;100.00;99516.77;108633;1271;21977;-62
2023/12/21 04:31:55;;;;;;;27.60;18.50;;;;;;;9.56;100.00;99515.67;108730;1277;21980;-61
2023/12/21 04:34:21;;;;;;;26.10;18.30;;;;;;;9.57;100.00;99522.82;108615;1277;21980;-59
2023/12/21 04:36:46;;;;;;;25.90;17.50;;;;;;;9.56;100.00;99530.20;108620;1271;21986;-61
2023/12/21 04:39:12;;;;;;;28.40;17.50;;;;;;;9.55;100.00;99538.11;108614;1273;21966;-61
2023/12/21 04:41:38;;;;;;;27.40;16.80;;;;;;;9.53;100.00;99545.33;108685;1277;21977;-60
2023/12/21 04:44:05;;;;;;;28.10;18.30;;;;;;;9.46;100.00;99554.40;108746;1271;21976;-61
2023/12/21 04:46:31;;;;;;;27.40;17.40;;;;;;;9.37;100.00;99560.02;108652;1277;21994;-61
2023/12/21 04:48:57;;;;;;;25.50;17.50;;;;;;;9.30;100.00;99558.23;108661;1277;22017;-61
2023/12/21 04:51:22;;;;;;;29.30;18.50;;;;;;;9.29;100.00;99555.25;108734;1277;22150;-62
2023/12/21 04:53:48;;;;;;;30.80;17.00;;;;;;;9.31;100.00;99547.36;108767;1277;21980;-60
2023/12/21 04:56:14;;;;;;;26.80;16.80;;;;;;;9.32;100.00;99548.70;108677;1274;21980;-60
2023/12/21 04:58:40;;;;;;;29.90;16.50;;;;;;;9.33;100.00;99550.80;108654;1277;21981;-60
2023/12/21 05:01:06;;;;;;;24.30;15.90;;;;;;;9.31;100.00;99552.26;108656;1274;23043;-60
2023/12/21 05:03:32;;;;;;;29.60;18.80;;;;;;;9.29;100.00;99553.52;108669;1277;21983;-60
2023/12/21 05:05:57;;;;;;;25.10;15.90;;;;;;;9.26;100.00;99551.67;108714;1273;21998;-60
2023/12/21 05:08:23;;;;;;;26.20;16.40;;;;;;;9.29;100.00;99552.47;108870;1271;21982;-61
2023/12/21 05:10:48;;;;;;;25.00;15.90;;;;;;;9.29;100.00;99550.19;108734;1271;21980;-63
2023/12/21 05:13:14;;;;;;;24.40;16.20;;;;;;;9.30;100.00;99548.08;108656;1277;23615;-62
2023/12/21 05:15:40;;;;;;;22.40;15.10;;;;;;;9.28;100.00;99553.91;108674;1277;22844;-61
2023/12/21 05:18:05;;;;;;;23.60;14.80;;;;;;;9.25;100.00;99558.67;108630;1267;21968;-61
2023/12/21 05:20:31;;;;;;;23.40;15.10;;;;;;;9.25;100.00;99563.41;108498;1278;21986;-61
2023/12/21 05:22:56;;;;;;;30.90;16.70;;;;;;;9.26;100.00;99559.73;108578;1278;22066;-63
2023/12/21 05:25:22;;;;;;;31.60;15.40;;;;;;;9.36;100.00;99552.86;108493;1274;21981;-63
2023/12/21 05:27:48;;;;;;;25.40;15.60;;;;;;;9.49;100.00;99548.91;108523;1275;21994;-63
2023/12/21 05:30:17;;;;;;;28.30;15.20;;;;;;;9.64;100.00;99549.14;107771;1278;1002616;-65
2023/12/21 05:32:42;;;;;;;24.70;15.50;;;;;;;9.75;100.00;99552.04;108578;1278;21984;-62
2023/12/21 05:35:08;;;;;;;26.20;13.50;;;;;;;9.82;100.00;99553.80;108563;1267;21984;-59
2023/12/21 05:37:37;;;;;;;25.30;13.90;;;;;;;9.87;100.00;99550.73;108579;1278;22441;-62
2023/12/21 05:40:03;;;;;;;30.30;14.80;;;;;;;9.90;100.00;99547.52;108525;1278;21977;-62
2023/12/21 05:42:29;;;;;;;24.80;14.10;;;;;;;9.91;100.00;99548.19;108612;1266;21987;-61
2023/12/21 05:44:55;;;;;;;22.50;13.50;;;;;;;9.88;99.98;99554.89;108531;1266;21993;-61
2023/12/21 05:47:20;;;;;;;23.90;14.20;;;;;;;9.79;99.48;99556.50;108531;1277;21950;-60
2023/12/21 05:49:46;;;;;;;21.30;13.80;;;;;;;9.69;99.04;99553.04;108534;1278;21994;-60
2023/12/21 05:52:12;;;;;;;20.90;13.90;;;;;;;9.62;98.79;99557.58;108654;1277;21979;-59
2023/12/21 05:54:38;;;;;;;23.10;14.80;;;;;;;9.54;98.59;99569.11;108662;1277;21990;-60
2023/12/21 05:57:04;;;;;;;21.20;14.00;;;;;;;9.48;98.38;99574.85;108632;1271;21978;-61
2023/12/21 05:59:30;;;;;;;27.90;14.20;;;;;;;9.44;98.59;99576.34;108836;1277;21977;-61
2023/12/21 06:01:56;;;;;;;20.90;13.10;;;;;;;9.36;98.11;99571.60;108800;1277;21980;-61
2023/12/21 06:04:21;;;;;;;22.90;13.20;;;;;;;9.32;98.26;99572.20;108780;1277;21979;-62
2023/12/21 06:06:47;;;;;;;20.10;12.30;;;;;;;9.31;98.66;99574.48;108786;1277;21986;-63
2023/12/21 06:09:13;;;;;;;23.80;13.20;;;;;;;9.28;98.33;99580.86;108761;1277;21980;-62
2023/12/21 06:11:39;;;;;;;30.30;15.60;;;;;;;9.27;98.42;99587.02;108814;1277;21985;-61
2023/12/21 06:14:05;;;;;;;33.20;16.60;;;;;;;9.25;98.58;99581.44;108781;1277;21979;-60
2023/12/21 06:16:31;;;;;;;24.30;14.20;;;;;;;9.27;98.87;99579.64;108784;1277;21982;-61
2023/12/21 06:18:56;;;;;;;22.90;14.90;;;;;;;9.27;98.87;99584.38;108742;1270;21977;-60
2023/12/21 06:21:23;;;;;;;25.80;15.80;;;;;;;9.26;98.69;99575.83;108762;1277;21980;-63
2023/12/21 06:23:49;;;;;;;25.20;15.10;;;;;;;9.24;98.42;99573.94;108855;1277;21977;-61
2023/12/21 06:26:14;;;;;;;26.60;15.90;;;;;;;9.23;98.43;99579.02;108761;1277;22019;-61
2023/12/21 06:28:40;;;;;;;24.00;14.50;;;;;;;9.24;98.62;99579.55;108661;1270;22067;-61
2023/12/21 06:31:06;;;;;;;20.50;14.30;;;;;;;9.25;98.59;99579.35;108718;1277;21991;-61
2023/12/21 06:33:34;;;;;;;29.90;16.70;;;;;;;9.26;98.60;99582.30;108659;1277;21985;-63
2023/12/21 06:36:00;;;;;;;25.20;15.30;;;;;;;9.21;98.05;99586.92;108701;1277;21989;-62
2023/12/21 06:38:25;;;;;;;26.20;16.90;;;;;;;9.22;98.08;99589.39;108447;1273;21978;-61
2023/12/21 06:40:51;;;;;;;22.80;16.10;;;;;;;9.24;98.15;99595.11;108644;1267;21990;-62
2023/12/21 06:43:17;;;;;;;24.30;15.70;;;;;;;9.25;97.94;99597.73;108745;1277;22445;-62
2023/12/21 06:45:42;;;;;;;26.00;15.50;;;;;;;9.25;97.90;99594.41;107927;1274;1003181;-62
2023/12/21 06:48:08;;;;;;;23.70;14.60;;;;;;;9.26;98.27;99600.67;108623;1277;21987;-61
2023/12/21 06:50:34;;;;;;;26.10;16.10;;;;;;;9.27;98.35;99600.14;108634;1274;21979;-63
2023/12/21 06:52:59;;;;;;;23.50;14.60;;;;;;;9.29;98.40;99594.33;108652;1277;22093;-61
2023/12/21 06:55:25;;;;;;;25.90;15.10;;;;;;;9.30;98.25;99599.19;108596;1268;22011;-61
2023/12/21 06:57:50;;;;;;;23.30;15.30;;;;;;;9.30;98.19;99597.77;108616;1277;21983;-61
2023/12/21 07:00:17;;;;;;;22.20;14.70;;;;;;;9.34;98.60;99600.70;108761;1277;21980;-61
2023/12/21 07:02:43;;;;;;;23.20;13.80;;;;;;;9.39;98.90;99601.65;108672;1277;21979;-61
2023/12/21 07:05:08;;;;;;;22.90;14.00;;;;;;;9.44;98.83;99602.42;108680;1277;21982;-61
2023/12/21 07:07:34;;;;;;;20.40;14.50;;;;;;;9.47;98.58;99603.41;108650;1277;21944;-64
2023/12/21 07:10:00;;;;;;;17.50;11.70;;;;;;;9.49;98.48;99608.63;108743;1277;22037;-64
2023/12/21 07:12:27;;;;;;;20.90;13.40;;;;;;;9.53;98.63;99612.58;108794;1273;21977;-64
2023/12/21 07:14:53;;;;;;;19.00;12.30;;;;;;;9.57;98.67;99613.54;108658;1277;21980;-62
2023/12/21 07:17:19;;;;;;;22.00;12.40;;;;;;;9.60;98.31;99615.92;108634;1277;21986;-61
2023/12/21 07:19:45;;;;;;;18.60;11.50;;;;;;;9.65;98.61;99614.95;108599;1277;22014;-62
2023/12/21 07:22:10;;;;;;;20.20;13.10;;;;;;;9.67;98.49;99612.64;108631;1277;21973;-62
2023/12/21 07:24:36;;;;;;;25.00;14.50;;;;;;;9.70;98.26;99610.66;108678;1277;21979;-63
2023/12/21 07:27:03;;;;;;;18.30;11.80;;;;;;;9.76;98.49;99610.16;108706;1277;21982;-62
2023/12/21 07:29:29;;;;;;;15.60;11.00;;;;;;;9.80;98.32;99613.06;108596;1277;22011;-60
2023/12/21 07:31:54;;;;;;;18.10;11.70;;;;;;;9.84;98.16;99614.92;108586;1266;21983;-60
2023/12/21 07:34:20;;;;;;;20.20;11.50;;;;;;;9.91;98.46;99617.94;108616;1274;21980;-62
2023/12/21 07:36:46;;;;;;;20.30;11.90;;;;;;;9.95;98.33;99623.44;108484;1277;21978;-60
2023/12/21 07:39:11;;;;;;;16.10;11.10;;;;;;;10.02;97.89;99629.08;108596;1274;21979;-60
2023/12/21 07:41:37;;;;;;;18.50;11.40;;;;;;;10.06;97.87;99626.18;108602;1278;21977;-60
2023/12/21 07:44:03;;;;;;;16.90;10.80;;;;;;;10.09;97.79;99626.98;108591;1278;22098;-62
2023/12/21 07:46:29;;;;;;;15.50;10.10;;;;;;;10.14;97.86;99632.14;108645;1273;22017;-62
2023/12/21 07:48:54;;;;;;;16.30;10.30;;;;;;;10.12;97.85;99640.45;108700;1277;21968;-64
2023/12/21 07:51:20;;;;;;;18.90;10.90;;;;;;;10.11;97.94;99643.95;108743;1266;21980;-64
2023/12/21 07:53:46;;;;;;;16.20;10.30;;;;;;;10.11;97.42;99646.41;108798;1277;21990;-60
2023/12/21 07:56:11;;;;;;;15.30;9.50;;;;;;;10.09;96.81;99646.96;108037;1274;1002803;-62
2023/12/21 07:58:37;;;;;;;15.30;9.80;;;;;;;10.12;97.14;99649.88;108703;1274;22033;-60
2023/12/21 08:01:03;;;;;;;16.20;9.00;;;;;;;10.20;97.30;99653.57;108663;1274;21981;-59
2023/12/21 08:03:28;;;;;;;13.20;9.60;;;;;;;10.23;96.64;99657.00;108671;1270;21977;-62
2023/12/21 08:05:55;;;;;;;15.30;9.10;;;;;;;10.27;96.84;99655.68;108636;1277;21983;-59
2023/12/21 08:08:20;;;;;;;14.90;9.00;;;;;;;10.33;96.91;99653.28;108741;1277;21983;-60
2023/12/21 08:10:46;;;;;;;12.50;8.90;;;;;;;10.36;96.63;99653.56;108686;1270;21980;-60
2023/12/21 08:13:13;;;;;;;12.00;8.10;;;;;;;10.33;95.96;99656.79;108748;1267;21994;-60
2023/12/21 08:15:40;;;;;;;13.40;7.90;;;;;;;10.32;95.89;99655.58;108653;1277;21985;-60
2023/12/21 08:18:06;;;;;;;12.80;8.30;;;;;;;10.36;96.34;99648.65;108773;1277;21977;-61
2023/12/21 08:20:33;;;;;;;13.80;8.50;;;;;;;10.42;96.83;99643.46;108809;1277;21974;-61
2023/12/21 08:23:02;;;;;;;15.80;8.70;;;;;;;10.47;96.89;99641.41;108772;1277;21974;-61
2023/12/21 08:25:29;;;;;;;15.40;8.50;;;;;;;10.52;96.82;99641.11;108747;1277;21990;-59
2023/12/21 08:27:55;;;;;;;11.40;8.00;;;;;;;10.58;96.90;99634.31;108656;1277;21981;-60
2023/12/21 08:30:21;;;;;;;13.10;8.50;;;;;;;10.67;97.41;99626.56;108593;1266;21984;-60
2023/12/21 08:32:46;;;;;;;11.70;8.20;;;;;;;10.76;97.36;99630.89;108578;1274;21971;-60
2023/12/21 08:35:12;;;;;;;16.20;10.60;;;;;;;10.82;96.33;99628.63;108602;1278;21985;-60
2023/12/21 08:37:37;;;;;;;27.30;15.90;;;;;;;10.88;96.04;99619.02;108623;1278;21983;-60
2023/12/21 08:40:04;;;;;;;54.00;24.40;;;;;;;10.94;96.26;99615.17;108707;1268;21983;-60
2023/12/21 08:42:30;;;;;;;57.70;27.50;;;;;;;10.99;96.12;99610.47;108765;1278;22437;-60
2023/12/21 08:44:59;;;;;;;25.20;14.80;;;;;;;11.09;96.35;99606.53;108755;1277;22776;-60
2023/12/21 08:47:26;;;;;;;14.60;9.20;;;;;;;11.16;96.30;99601.77;108813;1277;23052;-60
2023/12/21 08:49:52;;;;;;;15.60;10.00;;;;;;;11.24;96.46;99604.90;108818;1277;21991;-60
2023/12/21 08:52:18;;;;;;;14.70;9.90;;;;;;;11.30;96.26;99610.53;108853;1267;21983;-60
2023/12/21 08:54:44;;;;;;;14.40;9.50;;;;;;;11.34;95.48;99608.84;108744;1271;21988;-60
2023/12/21 08:57:11;;;;;;;13.10;8.30;;;;;;;11.35;94.68;99604.95;108766;1266;22264;-61
2023/12/21 08:59:37;;;;;;;15.40;8.80;;;;;;;11.35;94.09;99607.22;108725;1275;22154;-61
2023/12/21 09:02:03;;;;;;;13.60;8.30;;;;;;;11.36;93.95;99613.70;108440;1277;23561;-61
2023/12/21 09:04:29;;;;;;;14.60;8.80;;;;;;;11.33;92.66;99604.83;108661;1277;21993;-60
2023/12/21 09:06:54;;;;;;;13.20;7.90;;;;;;;11.34;92.86;99600.76;108726;1272;22008;-59
2023/12/21 09:09:20;;;;;;;13.90;8.00;;;;;;;11.35;92.65;99603.89;108661;1277;21977;-59
2023/12/21 09:11:45;;;;;;;17.40;8.20;;;;;;;11.40;93.11;99605.52;108727;1277;21980;-60
2023/12/21 09:14:11;;;;;;;18.50;8.80;;;;;;;11.48;94.46;99598.09;108617;1277;21980;-60
2023/12/21 09:16:37;;;;;;;38.80;18.00;;;;;;;11.57;94.78;99591.86;108757;1277;22017;-60
2023/12/21 09:19:03;;;;;;;59.30;26.80;;;;;;;11.65;94.05;99591.98;108643;1277;21982;-60
2023/12/21 09:21:28;;;;;;;46.90;21.50;;;;;;;11.67;93.03;99591.58;108665;1277;22273;-60
2023/12/21 09:23:54;;;;;;;37.00;16.80;;;;;;;11.67;92.33;99585.60;108605;1277;21982;-59
2023/12/21 09:26:20;;;;;;;30.90;15.90;;;;;;;11.68;92.83;99581.70;108639;1277;21977;-60
2023/12/21 09:28:46;;;;;;;27.20;15.30;;;;;;;11.68;92.58;99580.64;108634;1277;21987;-60
2023/12/21 09:31:11;;;;;;;34.60;17.70;;;;;;;11.65;91.67;99578.27;108555;1277;21983;-60
2023/12/21 09:33:38;;;;;;;35.40;18.00;;;;;;;11.65;91.81;99578.82;108651;1271;21985;-61
2023/12/21 09:36:04;;;;;;;38.00;20.90;;;;;;;11.69;92.73;99582.02;108653;1277;21980;-60
2023/12/21 09:38:31;;;;;;;36.40;19.50;;;;;;;11.75;92.02;99579.72;108609;1277;21976;-60
2023/12/21 09:40:58;;;;;;;19.70;10.60;;;;;;;11.79;92.36;99571.67;108634;1277;21990;-62
2023/12/21 09:43:23;;;;;;;25.60;11.20;;;;;;;11.85;92.57;99571.85;108613;1274;22025;-60
2023/12/21 09:45:52;;;;;;;16.60;10.50;;;;;;;11.92;92.53;99573.07;108614;1273;21985;-60
2023/12/21 09:48:19;;;;;;;16.10;9.80;;;;;;;11.98;91.54;99573.43;108659;1277;22003;-61
2023/12/21 09:50:45;;;;;;;11.70;8.10;;;;;;;12.00;91.23;99572.33;108677;1277;21981;-60
2023/12/21 09:53:14;;;;;;;15.30;7.90;;;;;;;12.05;92.08;99566.91;108703;1277;22378;-60
2023/12/21 09:55:43;;;;;;;12.30;7.70;;;;;;;12.14;92.49;99567.16;108620;1277;22445;-60
2023/12/21 09:58:12;;;;;;;10.30;7.00;;;;;;;12.19;91.63;99564.50;108691;1277;21981;-60
2023/12/21 10:00:40;;;;;;;10.50;7.20;;;;;;;12.20;89.15;99561.50;107125;1268;1002546;-61
2023/12/21 10:03:06;;;;;;;10.10;6.30;;;;;;;12.20;87.41;99562.55;108708;1277;21983;-60
2023/12/21 10:05:32;;;;;;;10.30;6.00;;;;;;;12.27;89.02;99562.88;108770;1275;21971;-60
2023/12/21 10:07:58;;;;;;;7.70;5.40;;;;;;;12.35;89.85;99558.40;108839;1277;21984;-59
2023/12/21 10:10:24;;;;;;;9.70;6.10;;;;;;;12.43;90.11;99549.85;108716;1277;22874;-59
2023/12/21 10:12:50;;;;;;;8.60;6.00;;;;;;;12.50;89.93;99543.80;108755;1275;22051;-60
2023/12/21 10:15:19;;;;;;;9.30;6.10;;;;;;;12.59;90.55;99540.88;108475;1278;21975;-61
2023/12/21 10:17:45;;;;;;;9.40;5.90;;;;;;;12.73;91.62;99543.22;108736;1277;21983;-61
2023/12/21 10:20:14;;;;;;;7.10;5.40;;;;;;;12.85;89.70;99538.73;108778;1277;21985;-61
2023/12/21 10:22:40;;;;;;;8.70;5.30;;;;;;;12.94;87.90;99541.24;106444;1277;1003111;-60
2023/12/21 10:25:07;;;;;;;13.60;5.50;;;;;;;13.05;89.23;99541.41;108614;1277;22442;-60
2023/12/21 10:27:34;;;;;;;8.20;5.20;;;;;;;13.14;89.35;99542.83;108745;1277;22017;-61
2023/12/21 10:30:01;;;;;;;9.60;6.10;;;;;;;13.19;86.23;99542.66;108646;1277;21985;-61
2023/12/21 10:32:26;;;;;;;10.10;6.40;;;;;;;13.18;83.84;99536.34;108715;1276;23616;-60
2023/12/21 10:34:58;;;;;;;10.30;5.90;;;;;;;13.26;86.39;99529.02;108644;1277;21992;-61
2023/12/21 10:37:24;;;;;;;9.20;5.50;;;;;;;13.33;84.41;99521.52;108692;1272;22069;-61
2023/12/21 10:39:50;;;;;;;8.10;5.30;;;;;;;13.49;85.01;99515.83;108665;1277;22842;-61
2023/12/21 10:42:18;;;;;;;7.60;4.50;;;;;;;13.60;84.48;99508.73;108654;1271;22181;-60
2023/12/21 10:44:44;;;;;;;7.40;4.10;;;;;;;13.69;84.26;99502.23;108622;1277;21981;-61
2023/12/21 10:47:11;;;;;;;5.60;3.70;;;;;;;13.72;81.57;99499.28;108658;1277;22368;-61
2023/12/21 10:49:37;;;;;;;7.70;4.20;;;;;;;13.70;79.09;99494.58;108757;1277;21983;-60
2023/12/21 10:52:03;;;;;;;7.60;4.10;;;;;;;13.75;80.83;99488.40;108461;1277;21980;-61
2023/12/21 10:54:29;;;;;;;7.20;4.10;;;;;;;13.83;81.62;99478.77;108580;1277;24441;-61
2023/12/21 10:56:55;;;;;;;6.00;3.40;;;;;;;13.89;81.45;99474.64;108514;1278;21988;-60
2023/12/21 10:59:21;;;;;;;6.60;3.10;;;;;;;13.97;82.12;99470.05;108502;1278;21983;-61
2023/12/21 11:01:46;;;;;;;7.20;3.10;;;;;;;14.06;81.77;99464.08;108590;1278;21970;-61
2023/12/21 11:04:12;;;;;;;5.20;3.20;;;;;;;14.18;82.63;99457.57;108539;1278;21980;-60